Time;durP1;ratioP1;P1;durP2;ratioP2;P2;SDS_P1;SDS_P2;PMS_P1;PMS_P2;Temp;Humidity;BMP_temperature;BMP_pressure;BME280_temperature;BME280_humidity;BME280_pressure;Samples;Min_cycle;Max_cycle;Signal;HPM_P1;HPM_P2
2023/02/04 00:02:17;;;;;;;9.85;7.40;;;;;;;;;;10334788;28;20086;-65
2023/02/04 00:07:17;;;;;;;5.70;5.13;;;;;;;;;;10333352;28;20739;-66
2023/02/04 00:12:17;;;;;;;19.30;11.77;;;;;;;;;;10335473;28;20083;-65
2023/02/04 00:17:15;;;;;;;10.40;7.38;;;;;;;;;;10333601;28;20068;-66
2023/02/04 00:22:13;;;;;;;6.47;5.15;;;;;;;;;;10333830;28;20072;-65
2023/02/04 00:27:11;;;;;;;9.38;6.90;;;;;;;;;;10330471;28;20064;-65
2023/02/04 00:32:11;;;;;;;13.20;9.18;;;;;;;;;;10332691;28;20060;-65
2023/02/04 00:37:09;;;;;;;7.00;6.38;;;;;;;;;;10341469;28;20067;-65
2023/02/04 00:42:08;;;;;;;30.77;15.10;;;;;;;;;;10314707;28;20080;-63
2023/02/04 00:47:06;;;;;;;8.38;7.00;;;;;;;;;;10332953;28;20074;-63
2023/02/04 00:52:06;;;;;;;9.00;6.22;;;;;;;;;;10333768;28;20068;-64
2023/02/04 00:57:04;;;;;;;71.55;37.60;;;;;;;;;;10332286;28;20072;-64
2023/02/04 01:02:03;;;;;;;7.82;6.03;;;;;;;;;;10333930;28;20086;-64
2023/02/04 01:07:01;;;;;;;7.78;5.93;;;;;;;;;;10329870;28;20047;-64
2023/02/04 01:12:01;;;;;;;5.60;5.10;;;;;;;;;;10332760;28;20071;-64
2023/02/04 01:16:59;;;;;;;5.78;5.22;;;;;;;;;;10332917;28;20061;-64
2023/02/04 01:21:57;;;;;;;22.42;16.23;;;;;;;;;;10328144;28;20497;-64
2023/02/04 01:26:55;;;;;;;17.88;13.05;;;;;;;;;;10329520;28;20068;-63
2023/02/04 01:31:54;;;;;;;20.45;14.10;;;;;;;;;;10328968;28;20533;-63
2023/02/04 01:36:53;;;;;;;6.93;6.18;;;;;;;;;;10330988;28;20072;-64
2023/02/04 01:41:51;;;;;;;22.13;16.85;;;;;;;;;;10331903;28;20473;-63
2023/02/04 01:46:50;;;;;;;16.48;12.63;;;;;;;;;;10331353;28;20074;-65
2023/02/04 01:51:49;;;;;;;5.70;5.25;;;;;;;;;;10331335;28;20072;-65
2023/02/04 01:56:48;;;;;;;13.93;10.93;;;;;;;;;;10333540;28;20068;-64
2023/02/04 02:01:47;;;;;;;15.05;10.40;;;;;;;;;;10347408;28;20103;-64
2023/02/04 02:06:49;;;;;;;15.57;11.18;;;;;;;;;;10329359;28;20078;-64
2023/02/04 02:11:49;;;;;;;10.68;9.35;;;;;;;;;;10344492;28;20075;-64
2023/02/04 02:16:47;;;;;;;20.95;15.43;;;;;;;;;;10335515;28;20526;-64
2023/02/04 02:21:47;;;;;;;8.27;7.18;;;;;;;;;;10331316;28;20079;-64
2023/02/04 02:26:47;;;;;;;9.90;8.10;;;;;;;;;;10330796;28;20045;-64
2023/02/04 02:31:45;;;;;;;11.57;7.65;;;;;;;;;;10332498;28;20079;-64
2023/02/04 02:36:45;;;;;;;19.60;11.90;;;;;;;;;;10339001;28;20032;-64
2023/02/04 02:41:43;;;;;;;45.92;27.45;;;;;;;;;;10350795;28;20076;-64
2023/02/04 02:46:43;;;;;;;44.25;25.65;;;;;;;;;;10336095;28;20071;-65
2023/02/04 02:51:41;;;;;;;34.25;23.05;;;;;;;;;;10320007;28;20515;-65
2023/02/04 02:56:39;;;;;;;29.98;17.80;;;;;;;;;;10337810;28;20074;-65
2023/02/04 03:01:38;;;;;;;24.52;15.85;;;;;;;;;;10336088;28;20083;-65
2023/02/04 03:06:40;;;;;;;47.35;27.90;;;;;;;;;;10335439;28;20045;-65
2023/02/04 03:11:38;;;;;;;38.78;23.30;;;;;;;;;;10336241;28;20069;-64
2023/02/04 03:16:39;;;;;;;17.70;12.15;;;;;;;;;;10317635;28;20589;-64
2023/02/04 03:21:37;;;;;;;10.00;7.80;;;;;;;;;;10335396;28;20080;-64
2023/02/04 03:26:37;;;;;;;8.75;6.10;;;;;;;;;;10336184;28;20071;-63
2023/02/04 03:31:36;;;;;;;4.47;4.07;;;;;;;;;;10342132;28;20478;-64
2023/02/04 03:36:35;;;;;;;6.85;5.90;;;;;;;;;;10335214;28;20064;-64
2023/02/04 03:41:37;;;;;;;9.45;7.55;;;;;;;;;;10338052;28;20075;-64
2023/02/04 03:46:35;;;;;;;11.10;9.18;;;;;;;;;;10334769;28;20092;-65
2023/02/04 03:51:34;;;;;;;7.80;6.07;;;;;;;;;;10335736;28;20064;-65
2023/02/04 03:56:32;;;;;;;8.80;6.63;;;;;;;;;;10335562;28;20517;-65
2023/02/04 04:01:31;;;;;;;7.97;5.50;;;;;;;;;;10333950;28;20500;-65
2023/02/04 04:06:30;;;;;;;6.03;4.93;;;;;;;;;;10335944;28;20064;-64
2023/02/04 04:11:29;;;;;;;4.95;4.50;;;;;;;;;;10331304;28;20064;-64
2023/02/04 04:16:27;;;;;;;7.00;5.60;;;;;;;;;;10334444;28;20063;-65
2023/02/04 04:21:26;;;;;;;6.57;5.47;;;;;;;;;;10333550;28;20079;-65
2023/02/04 04:26:24;;;;;;;8.45;4.70;;;;;;;;;;10333962;28;20166;-64
2023/02/04 04:31:23;;;;;;;6.40;4.82;;;;;;;;;;10334558;28;20510;-63
2023/02/04 04:36:21;;;;;;;4.25;3.83;;;;;;;;;;10333006;28;20513;-64
2023/02/04 04:41:20;;;;;;;5.82;3.75;;;;;;;;;;10332844;28;20087;-64
2023/02/04 04:46:19;;;;;;;6.13;5.32;;;;;;;;;;10333538;28;20071;-64
2023/02/04 04:51:17;;;;;;;8.93;7.25;;;;;;;;;;10335503;28;20075;-65
2023/02/04 04:56:15;;;;;;;5.28;4.20;;;;;;;;;;10333007;28;20090;-65
2023/02/04 05:01:14;;;;;;;13.55;10.80;;;;;;;;;;10333306;28;20080;-65
2023/02/04 05:06:13;;;;;;;17.08;12.65;;;;;;;;;;10332556;28;20075;-65
2023/02/04 05:11:11;;;;;;;7.47;6.70;;;;;;;;;;10331712;28;20082;-64
2023/02/04 05:16:10;;;;;;;3.92;3.55;;;;;;;;;;10331298;28;20592;-64
2023/02/04 05:21:10;;;;;;;4.30;3.90;;;;;;;;;;10331573;28;20075;-65
2023/02/04 05:26:08;;;;;;;5.97;5.38;;;;;;;;;;10331984;28;20075;-64
2023/02/04 05:31:08;;;;;;;5.97;5.38;;;;;;;;;;10331856;28;20485;-65
2023/02/04 05:36:06;;;;;;;4.68;4.22;;;;;;;;;;10330858;28;20068;-64
2023/02/04 05:41:06;;;;;;;27.80;20.60;;;;;;;;;;10330191;28;20092;-65
2023/02/04 05:46:04;;;;;;;6.80;6.10;;;;;;;;;;10330239;28;20060;-65
2023/02/04 05:51:02;;;;;;;10.30;6.72;;;;;;;;;;10331324;28;20064;-65
2023/02/04 05:56:01;;;;;;;7.25;6.35;;;;;;;;;;10331651;28;20041;-65
2023/02/04 06:01:01;;;;;;;19.48;8.80;;;;;;;;;;10330167;28;20079;-65
2023/02/04 06:05:59;;;;;;;12.45;9.02;;;;;;;;;;10328226;28;20083;-65
2023/02/04 06:10:57;;;;;;;16.38;14.85;;;;;;;;;;10329421;28;20071;-65
2023/02/04 06:15:55;;;;;;;13.07;11.77;;;;;;;;;;10330459;28;20083;-64
2023/02/04 06:20:54;;;;;;;7.97;6.45;;;;;;;;;;10330722;28;20075;-64
2023/02/04 06:25:54;;;;;;;9.20;7.72;;;;;;;;;;10328996;28;20068;-65
2023/02/04 06:30:52;;;;;;;10.05;9.05;;;;;;;;;;10329077;28;20076;-65
2023/02/04 06:35:50;;;;;;;14.30;7.93;;;;;;;;;;10330498;28;20091;-66
2023/02/04 06:40:52;;;;;;;8.00;6.57;;;;;;;;;;10329329;28;20080;-66
2023/02/04 06:45:50;;;;;;;28.77;18.92;;;;;;;;;;10329994;28;20078;-66
2023/02/04 06:50:49;;;;;;;10.70;9.77;;;;;;;;;;10329096;28;20494;-66
2023/02/04 06:55:47;;;;;;;5.88;4.80;;;;;;;;;;10328381;28;20465;-66
2023/02/04 07:00:46;;;;;;;5.90;5.15;;;;;;;;;;10330102;28;20072;-65
2023/02/04 07:05:45;;;;;;;6.47;5.88;;;;;;;;;;10327699;28;20533;-66
2023/02/04 07:10:43;;;;;;;8.80;7.07;;;;;;;;;;10329614;28;20048;-66
2023/02/04 07:15:41;;;;;;;19.30;13.68;;;;;;;;;;10330972;28;20064;-64
2023/02/04 07:20:45;;;;;;;8.30;7.22;;;;;;;;;;10335674;28;20076;-64
2023/02/04 07:25:43;;;;;;;16.80;11.75;;;;;;;;;;10335594;28;20070;-65
2023/02/04 07:30:42;;;;;;;13.00;11.65;;;;;;;;;;10333964;28;20095;-65
2023/02/04 07:35:40;;;;;;;9.57;8.35;;;;;;;;;;10335699;28;20160;-64
2023/02/04 07:40:39;;;;;;;6.35;5.72;;;;;;;;;;10333378;28;20599;-65
2023/02/04 07:45:38;;;;;;;10.85;8.48;;;;;;;;;;10345365;28;20454;-65
2023/02/04 07:50:36;;;;;;;8.85;7.45;;;;;;;;;;10338334;28;20072;-66
2023/02/04 07:55:34;;;;;;;10.15;8.35;;;;;;;;;;10344756;28;20075;-65
2023/02/04 08:00:34;;;;;;;11.15;8.50;;;;;;;;;;10339813;28;20079;-64
2023/02/04 08:05:32;;;;;;;8.43;7.53;;;;;;;;;;10345815;28;20079;-65
2023/02/04 08:10:30;;;;;;;11.60;9.55;;;;;;;;;;10342157;28;20082;-65
2023/02/04 08:15:29;;;;;;;10.07;9.02;;;;;;;;;;10340899;28;20488;-65
2023/02/04 08:20:28;;;;;;;9.52;8.48;;;;;;;;;;10334850;28;20142;-65
2023/02/04 08:25:30;;;;;;;14.65;10.85;;;;;;;;;;10336532;28;20076;-64
2023/02/04 08:30:28;;;;;;;11.43;10.07;;;;;;;;;;10335306;28;20066;-64
2023/02/04 08:35:26;;;;;;;18.65;14.68;;;;;;;;;;10340229;28;20080;-64
2023/02/04 08:40:26;;;;;;;14.63;10.45;;;;;;;;;;10341767;28;20064;-65
2023/02/04 08:45:24;;;;;;;13.43;10.25;;;;;;;;;;10343591;28;20173;-65
2023/02/04 08:50:22;;;;;;;18.63;13.90;;;;;;;;;;10336893;28;20071;-65
2023/02/04 08:55:20;;;;;;;16.25;10.63;;;;;;;;;;10346875;28;20079;-65
2023/02/04 09:00:20;;;;;;;16.15;12.32;;;;;;;;;;10338636;28;20063;-65
2023/02/04 09:05:18;;;;;;;12.38;9.65;;;;;;;;;;10330440;28;20438;-64
2023/02/04 09:10:19;;;;;;;8.20;7.35;;;;;;;;;;10333084;28;20476;-66
2023/02/04 09:15:17;;;;;;;12.40;10.20;;;;;;;;;;10336480;28;20070;-64
2023/02/04 09:20:17;;;;;;;17.15;11.98;;;;;;;;;;10339826;28;20079;-64
2023/02/04 09:25:15;;;;;;;9.60;8.60;;;;;;;;;;10335614;28;20082;-65
2023/02/04 09:30:14;;;;;;;9.85;8.85;;;;;;;;;;10334098;28;20071;-65
2023/02/04 09:35:14;;;;;;;10.27;8.05;;;;;;;;;;10333643;28;20089;-65
2023/02/04 09:40:16;;;;;;;14.43;10.52;;;;;;;;;;10327553;28;20091;-65
2023/02/04 09:45:17;;;;;;;45.90;29.52;;;;;;;;;;10341478;28;20075;-66
2023/02/04 09:50:15;;;;;;;13.77;11.45;;;;;;;;;;10339034;28;20537;-66
2023/02/04 09:55:16;;;;;;;36.38;24.67;;;;;;;;;;10338696;28;20068;-63
2023/02/04 10:00:15;;;;;;;18.33;15.23;;;;;;;;;;10340380;28;20064;-65
2023/02/04 10:05:15;;;;;;;18.33;14.93;;;;;;;;;;10335591;28;20068;-65
2023/02/04 10:10:16;;;;;;;12.55;10.93;;;;;;;;;;10343793;28;20067;-65
2023/02/04 10:15:14;;;;;;;48.72;33.80;;;;;;;;;;10328162;28;20098;-64
2023/02/04 10:20:15;;;;;;;32.90;22.25;;;;;;;;;;10336763;28;21042;-65
2023/02/04 10:25:15;;;;;;;27.35;17.45;;;;;;;;;;10338797;28;20067;-65
2023/02/04 10:30:17;;;;;;;15.13;13.05;;;;;;;;;;10336686;28;20536;-66
2023/02/04 10:35:19;;;;;;;18.10;13.80;;;;;;;;;;10330042;28;20076;-65
2023/02/04 10:40:29;;;;;;;16.08;12.55;;;;;;;;;;10342056;28;20515;-67
2023/02/04 10:45:29;;;;;;;22.67;18.45;;;;;;;;;;10323116;28;20083;-66
2023/02/04 10:50:30;;;;;;;26.02;20.23;;;;;;;;;;10330577;28;20072;-66
2023/02/04 10:55:30;;;;;;;27.15;19.60;;;;;;;;;;10338836;28;20076;-65
2023/02/04 11:00:28;;;;;;;25.67;19.58;;;;;;;;;;10335348;28;20091;-66
2023/02/04 11:05:29;;;;;;;12.27;10.18;;;;;;;;;;10345194;28;20095;-65
2023/02/04 11:10:29;;;;;;;40.80;27.38;;;;;;;;;;10341730;28;20603;-67
2023/02/04 11:15:40;;;;;;;36.17;25.80;;;;;;;;;;10337985;28;20068;-66
2023/02/04 11:20:39;;;;;;;37.40;22.80;;;;;;;;;;10337525;28;20083;-66
2023/02/04 11:25:39;;;;;;;24.75;16.30;;;;;;;;;;10335459;28;20493;-64
2023/02/04 11:30:38;;;;;;;24.17;16.73;;;;;;;;;;10339500;28;20060;-66
2023/02/04 11:35:37;;;;;;;17.33;12.63;;;;;;;;;;10331562;28;20071;-66
2023/02/04 11:40:36;;;;;;;54.92;30.27;;;;;;;;;;10331814;28;20484;-65
2023/02/04 11:45:35;;;;;;;27.70;17.05;;;;;;;;;;10332022;28;20506;-65
2023/02/04 11:50:37;;;;;;;13.63;11.30;;;;;;;;;;10335169;28;20064;-65
2023/02/04 11:55:36;;;;;;;21.17;15.70;;;;;;;;;;10333900;28;20142;-65
2023/02/04 12:00:36;;;;;;;16.13;14.43;;;;;;;;;;10333800;28;20443;-64
2023/02/04 12:05:38;;;;;;;22.13;19.25;;;;;;;;;;10333416;28;20086;-65
2023/02/04 12:10:36;;;;;;;19.20;16.90;;;;;;;;;;10336334;28;20064;-66
2023/02/04 12:15:35;;;;;;;13.52;11.98;;;;;;;;;;10344391;28;20078;-65
2023/02/04 12:20:33;;;;;;;16.92;13.68;;;;;;;;;;10348349;28;20527;-66
2023/02/04 12:25:33;;;;;;;15.45;13.43;;;;;;;;;;10331179;28;20079;-64
2023/02/04 12:30:31;;;;;;;17.60;14.40;;;;;;;;;;10333058;28;20064;-65
2023/02/04 12:35:29;;;;;;;18.33;14.15;;;;;;;;;;10344802;28;20508;-66
2023/02/04 12:40:28;;;;;;;26.00;18.30;;;;;;;;;;10341660;28;20071;-66
2023/02/04 12:45:28;;;;;;;46.92;27.90;;;;;;;;;;10339677;28;20066;-66
2023/02/04 12:50:26;;;;;;;103.78;56.22;;;;;;;;;;10337302;28;20067;-65
2023/02/04 12:55:25;;;;;;;34.17;23.60;;;;;;;;;;10346254;28;20068;-65
2023/02/04 13:00:25;;;;;;;20.77;16.10;;;;;;;;;;10337600;28;20078;-66
2023/02/04 13:05:28;;;;;;;18.27;13.55;;;;;;;;;;10333674;28;20076;-66
2023/02/04 13:10:26;;;;;;;20.77;17.25;;;;;;;;;;10336978;28;20068;-67
2023/02/04 13:15:24;;;;;;;11.45;9.68;;;;;;;;;;10334523;28;20070;-67
2023/02/04 13:20:22;;;;;;;17.95;14.80;;;;;;;;;;10333653;28;20071;-67
2023/02/04 13:25:23;;;;;;;22.55;15.63;;;;;;;;;;10333157;28;20143;-66
2023/02/04 13:30:22;;;;;;;15.65;12.30;;;;;;;;;;10329689;28;20158;-66
2023/02/04 13:35:20;;;;;;;41.85;22.33;;;;;;;;;;10332198;28;20083;-66
2023/02/04 13:40:18;;;;;;;17.27;14.07;;;;;;;;;;10332764;28;20082;-66
2023/02/04 13:45:18;;;;;;;30.63;19.00;;;;;;;;;;10330406;28;20060;-66
2023/02/04 13:50:17;;;;;;;36.70;23.20;;;;;;;;;;10331300;28;20079;-68
2023/02/04 13:55:18;;;;;;;14.05;10.77;;;;;;;;;;10329726;28;20064;-68
2023/02/04 14:00:20;;;;;;;19.60;14.75;;;;;;;;;;10329177;28;20468;-68
2023/02/04 14:05:18;;;;;;;25.20;15.18;;;;;;;;;;10333330;28;20079;-68
2023/02/04 14:10:16;;;;;;;24.50;19.17;;;;;;;;;;10330665;28;20080;-68
2023/02/04 14:15:15;;;;;;;42.85;27.50;;;;;;;;;;10329641;28;20083;-68
2023/02/04 14:20:14;;;;;;;66.50;44.33;;;;;;;;;;10330591;28;20060;-68
2023/02/04 14:25:12;;;;;;;30.60;21.63;;;;;;;;;;10329711;28;20075;-68
2023/02/04 14:30:16;;;;;;;51.20;33.83;;;;;;;;;;10341194;28;20067;-66
2023/02/04 14:35:16;;;;;;;52.13;37.83;;;;;;;;;;10339743;28;20472;-67
2023/02/04 14:40:15;;;;;;;50.08;33.25;;;;;;;;;;10334215;28;20064;-68
2023/02/04 14:45:14;;;;;;;92.70;53.45;;;;;;;;;;10341781;28;20064;-68
2023/02/04 14:50:13;;;;;;;140.90;83.15;;;;;;;;;;10339844;28;20072;-68
2023/02/04 14:55:14;;;;;;;41.35;28.35;;;;;;;;;;10344404;28;20486;-68
2023/02/04 15:00:12;;;;;;;80.00;50.22;;;;;;;;;;10337212;28;20060;-67
2023/02/04 15:05:10;;;;;;;50.75;36.53;;;;;;;;;;10337764;28;20111;-68
2023/02/04 15:10:17;;;;;;;45.20;32.83;;;;;;;;;;10334298;28;20071;-68
2023/02/04 15:15:29;;;;;;;39.88;28.73;;;;;;;;;;10336949;28;20084;-68
2023/02/04 15:20:44;;;;;;;31.83;23.73;;;;;;;;;;10343197;28;20075;-68
2023/02/04 15:25:55;;;;;;;42.40;33.45;;;;;;;;;;10336573;28;20091;-68
2023/02/04 15:30:55;;;;;;;30.42;24.05;;;;;;;;;;10332236;28;20077;-67
2023/02/04 15:35:53;;;;;;;25.77;21.08;;;;;;;;;;10331643;28;20074;-69
2023/02/04 15:40:51;;;;;;;28.33;22.92;;;;;;;;;;10338462;28;20428;-69
2023/02/04 15:45:49;;;;;;;18.88;14.75;;;;;;;;;;10339120;28;20509;-68
2023/02/04 15:50:57;;;;;;;20.40;16.02;;;;;;;;;;10330941;28;20067;-68
2023/02/04 15:55:55;;;;;;;32.47;26.23;;;;;;;;;;10332806;28;20064;-68
2023/02/04 16:00:53;;;;;;;27.20;21.73;;;;;;;;;;10334697;28;20902;-67
2023/02/04 16:05:54;;;;;;;26.65;21.33;;;;;;;;;;10333846;28;20916;-71
2023/02/04 16:10:53;;;;;;;28.08;22.92;;;;;;;;;;10348100;28;20090;-67
2023/02/04 16:15:51;;;;;;;48.78;36.13;;;;;;;;;;10335904;28;20076;-67
2023/02/04 16:20:49;;;;;;;51.72;39.67;;;;;;;;;;10332571;28;20075;-68
2023/02/04 16:25:49;;;;;;;44.15;36.97;;;;;;;;;;10333977;28;20079;-68
2023/02/04 16:30:47;;;;;;;36.85;28.98;;;;;;;;;;10335882;28;20072;-68
2023/02/04 16:35:58;;;;;;;34.53;26.13;;;;;;;;;;10339649;28;20143;-68
2023/02/04 16:40:58;;;;;;;36.42;26.98;;;;;;;;;;10345579;28;20060;-69
2023/02/04 16:45:57;;;;;;;28.88;23.42;;;;;;;;;;10336659;28;20091;-68
2023/02/04 16:50:55;;;;;;;27.27;22.52;;;;;;;;;;10337858;28;20064;-69
2023/02/04 16:55:54;;;;;;;27.92;22.33;;;;;;;;;;10332379;28;20479;-69
2023/02/04 17:00:55;;;;;;;31.13;23.23;;;;;;;;;;10342050;28;20068;-67
2023/02/04 17:05:53;;;;;;;32.67;26.00;;;;;;;;;;10321317;28;20575;-68
2023/02/04 17:16:11;;;;;;;29.35;23.77;;;;;;;;;;10333795;28;20142;-68
2023/02/04 17:21:09;;;;;;;33.00;25.52;;;;;;;;;;10338111;28;20115;-68
2023/02/04 17:26:07;;;;;;;37.78;29.10;;;;;;;;;;10337272;28;20084;-68
2023/02/04 17:31:05;;;;;;;32.25;24.95;;;;;;;;;;10336554;28;20075;-67
2023/02/04 17:36:08;;;;;;;31.83;23.20;;;;;;;;;;10334605;28;20532;-68
2023/02/04 17:41:08;;;;;;;31.67;23.63;;;;;;;;;;10347787;28;20098;-68
2023/02/04 17:46:06;;;;;;;39.65;28.55;;;;;;;;;;10335747;28;20082;-68
2023/02/04 17:51:06;;;;;;;45.92;33.08;;;;;;;;;;10338674;28;20477;-68
2023/02/04 17:56:06;;;;;;;46.63;32.97;;;;;;;;;;10337842;28;20067;-68
2023/02/04 18:01:09;;;;;;;73.22;42.00;;;;;;;;;;10338725;28;20075;-68
2023/02/04 18:06:16;;;;;;;86.35;48.78;;;;;;;;;;10335353;28;20086;-68
2023/02/04 18:11:16;;;;;;;60.70;39.53;;;;;;;;;;10344998;28;20064;-68
2023/02/04 18:16:21;;;;;;;39.78;29.48;;;;;;;;;;10342989;28;20063;-67
2023/02/04 18:21:22;;;;;;;45.33;31.40;;;;;;;;;;10335640;28;20533;-68
2023/02/04 18:26:23;;;;;;;71.03;44.13;;;;;;;;;;10343465;28;20076;-68
2023/02/04 18:31:39;;;;;;;50.63;36.65;;;;;;;;;;10331705;28;20537;-67
2023/02/04 18:36:38;;;;;;;46.20;32.40;;;;;;;;;;10336651;28;20068;-68
2023/02/04 18:41:40;;;;;;;32.28;26.15;;;;;;;;;;10332360;28;20076;-69
2023/02/04 18:46:46;;;;;;;35.40;29.63;;;;;;;;;;10329714;28;20654;-67
2023/02/04 18:51:45;;;;;;;37.10;29.27;;;;;;;;;;10340893;28;20470;-68
2023/02/04 18:56:55;;;;;;;43.10;33.80;;;;;;;;;;10331649;28;20501;-69
2023/02/04 19:02:01;;;;;;;41.53;33.45;;;;;;;;;;10336246;28;20071;-68
2023/02/04 19:07:01;;;;;;;41.55;33.55;;;;;;;;;;10332429;28;20086;-68
2023/02/04 19:12:13;;;;;;;46.67;36.22;;;;;;;;;;10344738;28;20059;-68
2023/02/04 19:17:21;;;;;;;47.90;37.00;;;;;;;;;;10338772;28;20508;-68
2023/02/04 19:22:24;;;;;;;46.88;34.95;;;;;;;;;;10339990;28;20083;-69
2023/02/04 19:27:27;;;;;;;51.22;36.55;;;;;;;;;;10333248;28;20083;-68
2023/02/04 19:32:27;;;;;;;54.63;38.47;;;;;;;;;;10345354;28;20083;-68
2023/02/04 19:37:38;;;;;;;51.67;37.95;;;;;;;;;;10342671;28;20075;-67
2023/02/04 19:42:36;;;;;;;46.28;34.63;;;;;;;;;;10346095;28;20513;-68
2023/02/04 19:47:36;;;;;;;40.80;34.30;;;;;;;;;;10349504;28;20076;-68
2023/02/04 19:52:37;;;;;;;53.42;38.15;;;;;;;;;;10337656;28;20075;-67
2023/02/04 19:57:35;;;;;;;49.45;36.85;;;;;;;;;;10342003;28;20086;-68
2023/02/04 20:02:37;;;;;;;43.88;33.70;;;;;;;;;;10332299;28;20060;-67
2023/02/04 20:07:37;;;;;;;54.80;39.33;;;;;;;;;;10336073;28;20094;-68
2023/02/04 20:12:36;;;;;;;43.10;31.25;;;;;;;;;;10335548;28;20071;-68
2023/02/04 20:17:36;;;;;;;43.28;32.65;;;;;;;;;;10337018;28;20461;-67
2023/02/04 20:22:45;;;;;;;34.85;26.85;;;;;;;;;;10319715;28;20548;-68
2023/02/04 20:27:44;;;;;;;24.50;20.83;;;;;;;;;;10334554;28;20087;-68
2023/02/04 20:32:42;;;;;;;29.05;20.67;;;;;;;;;;10347457;28;20079;-68
2023/02/04 20:37:42;;;;;;;19.52;17.42;;;;;;;;;;10328711;28;20476;-69
2023/02/04 20:42:45;;;;;;;28.00;13.82;;;;;;;;;;10333238;28;20071;-69
2023/02/04 20:47:43;;;;;;;18.42;15.73;;;;;;;;;;10335521;28;20076;-68
2023/02/04 20:53:14;;;;;;;16.27;13.80;;;;;;;;;;10335240;28;20509;-69
2023/02/04 20:58:18;;;;;;;16.08;14.30;;;;;;;;;;10330452;28;20072;-68
2023/02/04 21:03:19;;;;;;;14.30;12.68;;;;;;;;;;10315989;28;20071;-68
2023/02/04 21:08:26;;;;;;;14.82;13.35;;;;;;;;;;10336736;28;20136;-68
2023/02/04 21:13:27;;;;;;;14.82;13.10;;;;;;;;;;10336188;28;20086;-68
2023/02/04 21:18:26;;;;;;;19.15;14.40;;;;;;;;;;10334242;28;20075;-68
2023/02/04 21:23:24;;;;;;;15.73;12.45;;;;;;;;;;10315211;28;20072;-68
2023/02/04 21:28:23;;;;;;;17.02;15.00;;;;;;;;;;10334379;28;20076;-68
2023/02/04 21:33:22;;;;;;;17.95;14.95;;;;;;;;;;10338226;28;20087;-69
2023/02/04 21:38:22;;;;;;;17.35;13.50;;;;;;;;;;10330622;28;20060;-69
2023/02/04 21:43:20;;;;;;;14.10;12.70;;;;;;;;;;10331055;28;20079;-69
2023/02/04 21:48:18;;;;;;;19.67;16.30;;;;;;;;;;10335305;28;20063;-69
2023/02/04 21:53:18;;;;;;;15.23;13.65;;;;;;;;;;10332482;28;20076;-69
2023/02/04 21:58:16;;;;;;;14.27;12.77;;;;;;;;;;10332469;28;20064;-69
2023/02/04 22:03:16;;;;;;;15.43;13.35;;;;;;;;;;10340686;28;20065;-67
2023/02/04 22:08:14;;;;;;;15.57;13.45;;;;;;;;;;10328953;28;20079;-68
2023/02/04 22:18:29;;;;;;;14.55;13.05;;;;;;;;;;10327933;28;20071;-68
2023/02/04 22:23:27;;;;;;;13.85;12.48;;;;;;;;;;10329203;28;20091;-68
2023/02/04 22:28:27;;;;;;;19.30;13.30;;;;;;;;;;10326691;28;20083;-67
2023/02/04 22:33:25;;;;;;;15.35;13.40;;;;;;;;;;10327250;28;20088;-68
2023/02/04 22:38:23;;;;;;;12.85;11.57;;;;;;;;;;10314538;28;20076;-69
2023/02/04 22:43:21;;;;;;;14.27;12.85;;;;;;;;;;10324472;28;20072;-68
2023/02/04 22:48:21;;;;;;;11.02;9.77;;;;;;;;;;10332760;28;20076;-67
2023/02/04 22:53:19;;;;;;;12.20;10.90;;;;;;;;;;10337459;28;20393;-67
2023/02/04 22:58:17;;;;;;;12.45;10.57;;;;;;;;;;10346777;28;20071;-67
2023/02/04 23:03:15;;;;;;;14.27;11.45;;;;;;;;;;10348581;28;20541;-67
2023/02/04 23:08:16;;;;;;;10.98;9.50;;;;;;;;;;10352040;28;20071;-68
2023/02/04 23:13:15;;;;;;;10.43;9.10;;;;;;;;;;10342000;28;20516;-67
2023/02/04 23:18:13;;;;;;;9.90;8.82;;;;;;;;;;10342776;28;20075;-67
2023/02/04 23:23:16;;;;;;;10.07;8.95;;;;;;;;;;10341745;28;20064;-67
2023/02/04 23:28:16;;;;;;;11.65;9.00;;;;;;;;;;10341129;28;20072;-67
2023/02/04 23:33:14;;;;;;;11.23;9.00;;;;;;;;;;10333558;28;20098;-67
2023/02/04 23:38:12;;;;;;;10.35;9.25;;;;;;;;;;10339230;28;20070;-67
2023/02/04 23:43:10;;;;;;;10.18;8.13;;;;;;;;;;10340082;28;20075;-67
2023/02/04 23:48:12;;;;;;;9.50;8.60;;;;;;;;;;10337868;28;20083;-68
2023/02/04 23:53:10;;;;;;;9.27;8.38;;;;;;;;;;10334104;28;20064;-68
2023/02/04 23:58:09;;;;;;;11.65;10.38;;;;;;;;;;10340074;28;20556;-69
